sensor_id;sensor_type;location;lat;lon;timestamp;P1;durP1;ratioP1;P2;durP2;ratioP2
52708;SDS011;38606;52.986;6.980;2023-11-21T00:01:31;51.20;;;17.60;;
52708;SDS011;38606;52.986;6.980;2023-11-21T00:03:57;53.15;;;18.48;;
52708;SDS011;38606;52.986;6.980;2023-11-21T00:06:23;59.45;;;18.05;;
52708;SDS011;38606;52.986;6.980;2023-11-21T00:08:49;53.17;;;17.52;;
52708;SDS011;38606;52.986;6.980;2023-11-21T00:11:14;51.53;;;17.02;;
52708;SDS011;38606;52.986;6.980;2023-11-21T00:13:40;50.22;;;17.33;;
52708;SDS011;38606;52.986;6.980;2023-11-21T00:16:06;60.88;;;18.92;;
52708;SDS011;38606;52.986;6.980;2023-11-21T00:18:32;56.65;;;19.25;;
52708;SDS011;38606;52.986;6.980;2023-11-21T00:20:58;54.25;;;18.05;;
52708;SDS011;38606;52.986;6.980;2023-11-21T00:23:24;52.28;;;18.15;;
52708;SDS011;38606;52.986;6.980;2023-11-21T00:25:50;53.13;;;17.77;;
52708;SDS011;38606;52.986;6.980;2023-11-21T00:28:16;55.38;;;19.10;;
52708;SDS011;38606;52.986;6.980;2023-11-21T00:30:41;54.88;;;18.77;;
52708;SDS011;38606;52.986;6.980;2023-11-21T00:33:07;58.20;;;18.88;;
52708;SDS011;38606;52.986;6.980;2023-11-21T00:35:33;61.28;;;20.25;;
52708;SDS011;38606;52.986;6.980;2023-11-21T00:37:58;56.25;;;18.60;;
52708;SDS011;38606;52.986;6.980;2023-11-21T00:40:24;54.38;;;19.15;;
52708;SDS011;38606;52.986;6.980;2023-11-21T00:42:50;58.80;;;20.27;;
52708;SDS011;38606;52.986;6.980;2023-11-21T00:45:15;54.28;;;18.40;;
52708;SDS011;38606;52.986;6.980;2023-11-21T00:47:41;56.45;;;19.52;;
52708;SDS011;38606;52.986;6.980;2023-11-21T00:50:07;57.30;;;19.65;;
52708;SDS011;38606;52.986;6.980;2023-11-21T00:52:34;60.30;;;19.60;;
52708;SDS011;38606;52.986;6.980;2023-11-21T00:55:01;54.30;;;18.92;;
52708;SDS011;38606;52.986;6.980;2023-11-21T00:57:28;61.83;;;19.38;;
52708;SDS011;38606;52.986;6.980;2023-11-21T00:59:54;55.92;;;18.30;;
52708;SDS011;38606;52.986;6.980;2023-11-21T01:02:20;56.40;;;18.85;;
52708;SDS011;38606;52.986;6.980;2023-11-21T01:04:46;61.65;;;19.17;;
52708;SDS011;38606;52.986;6.980;2023-11-21T01:07:13;52.28;;;19.25;;
52708;SDS011;38606;52.986;6.980;2023-11-21T01:09:38;57.72;;;19.27;;
52708;SDS011;38606;52.986;6.980;2023-11-21T01:12:04;58.60;;;20.40;;
52708;SDS011;38606;52.986;6.980;2023-11-21T01:14:30;53.17;;;18.23;;
52708;SDS011;38606;52.986;6.980;2023-11-21T01:16:56;50.15;;;18.73;;
52708;SDS011;38606;52.986;6.980;2023-11-21T01:19:21;56.78;;;19.40;;
52708;SDS011;38606;52.986;6.980;2023-11-21T01:21:47;55.92;;;19.88;;
52708;SDS011;38606;52.986;6.980;2023-11-21T01:24:13;51.10;;;20.27;;
52708;SDS011;38606;52.986;6.980;2023-11-21T01:26:39;55.22;;;20.38;;
52708;SDS011;38606;52.986;6.980;2023-11-21T01:29:04;59.15;;;20.05;;
52708;SDS011;38606;52.986;6.980;2023-11-21T01:31:30;53.05;;;19.42;;
52708;SDS011;38606;52.986;6.980;2023-11-21T01:33:56;63.00;;;20.77;;
52708;SDS011;38606;52.986;6.980;2023-11-21T01:36:22;59.92;;;22.05;;
52708;SDS011;38606;52.986;6.980;2023-11-21T01:38:48;59.22;;;22.58;;
52708;SDS011;38606;52.986;6.980;2023-11-21T01:41:14;58.38;;;20.98;;
52708;SDS011;38606;52.986;6.980;2023-11-21T01:43:40;54.90;;;19.98;;
52708;SDS011;38606;52.986;6.980;2023-11-21T01:46:06;56.30;;;22.23;;
52708;SDS011;38606;52.986;6.980;2023-11-21T01:48:34;58.20;;;21.25;;
52708;SDS011;38606;52.986;6.980;2023-11-21T01:51:00;58.72;;;22.38;;
52708;SDS011;38606;52.986;6.980;2023-11-21T01:53:27;61.88;;;20.27;;
52708;SDS011;38606;52.986;6.980;2023-11-21T01:55:53;54.42;;;20.55;;
52708;SDS011;38606;52.986;6.980;2023-11-21T01:58:21;67.25;;;20.55;;
52708;SDS011;38606;52.986;6.980;2023-11-21T02:00:47;51.55;;;19.80;;
52708;SDS011;38606;52.986;6.980;2023-11-21T02:03:16;56.55;;;20.95;;
52708;SDS011;38606;52.986;6.980;2023-11-21T02:05:42;71.47;;;20.23;;
52708;SDS011;38606;52.986;6.980;2023-11-21T02:08:07;51.38;;;19.45;;
52708;SDS011;38606;52.986;6.980;2023-11-21T02:10:34;54.42;;;20.20;;
52708;SDS011;38606;52.986;6.980;2023-11-21T02:13:02;63.50;;;21.52;;
52708;SDS011;38606;52.986;6.980;2023-11-21T02:15:28;59.95;;;20.50;;
52708;SDS011;38606;52.986;6.980;2023-11-21T02:17:54;65.50;;;20.48;;
52708;SDS011;38606;52.986;6.980;2023-11-21T02:20:20;61.22;;;20.67;;
52708;SDS011;38606;52.986;6.980;2023-11-21T02:27:49;50.22;;;19.38;;
52708;SDS011;38606;52.986;6.980;2023-11-21T02:30:15;51.65;;;19.50;;
52708;SDS011;38606;52.986;6.980;2023-11-21T02:32:41;55.85;;;20.40;;
52708;SDS011;38606;52.986;6.980;2023-11-21T02:35:08;67.32;;;19.60;;
52708;SDS011;38606;52.986;6.980;2023-11-21T02:37:34;57.80;;;19.35;;
52708;SDS011;38606;52.986;6.980;2023-11-21T02:40:00;61.40;;;20.58;;
52708;SDS011;38606;52.986;6.980;2023-11-21T02:42:31;53.65;;;20.25;;
52708;SDS011;38606;52.986;6.980;2023-11-21T02:44:57;53.47;;;20.67;;
52708;SDS011;38606;52.986;6.980;2023-11-21T02:47:22;59.10;;;19.58;;
52708;SDS011;38606;52.986;6.980;2023-11-21T02:49:48;51.35;;;19.63;;
52708;SDS011;38606;52.986;6.980;2023-11-21T02:52:15;58.03;;;20.35;;
52708;SDS011;38606;52.986;6.980;2023-11-21T02:54:41;60.40;;;20.27;;
52708;SDS011;38606;52.986;6.980;2023-11-21T02:57:07;60.42;;;21.63;;
52708;SDS011;38606;52.986;6.980;2023-11-21T02:59:33;56.97;;;20.58;;
52708;SDS011;38606;52.986;6.980;2023-11-21T03:02:00;65.57;;;20.98;;
52708;SDS011;38606;52.986;6.980;2023-11-21T03:04:25;55.88;;;19.85;;
52708;SDS011;38606;52.986;6.980;2023-11-21T03:06:51;61.35;;;20.63;;
52708;SDS011;38606;52.986;6.980;2023-11-21T03:09:17;53.90;;;19.30;;
52708;SDS011;38606;52.986;6.980;2023-11-21T03:11:42;49.67;;;19.08;;
52708;SDS011;38606;52.986;6.980;2023-11-21T03:14:08;57.80;;;18.52;;
52708;SDS011;38606;52.986;6.980;2023-11-21T03:16:34;61.28;;;19.88;;
52708;SDS011;38606;52.986;6.980;2023-11-21T03:19:00;58.15;;;20.95;;
52708;SDS011;38606;52.986;6.980;2023-11-21T03:21:26;57.95;;;20.33;;
52708;SDS011;38606;52.986;6.980;2023-11-21T03:23:52;56.92;;;19.80;;
52708;SDS011;38606;52.986;6.980;2023-11-21T03:26:18;54.00;;;20.48;;
52708;SDS011;38606;52.986;6.980;2023-11-21T03:28:43;60.63;;;20.55;;
52708;SDS011;38606;52.986;6.980;2023-11-21T03:31:09;53.67;;;19.40;;
52708;SDS011;38606;52.986;6.980;2023-11-21T03:33:35;53.97;;;18.95;;
52708;SDS011;38606;52.986;6.980;2023-11-21T03:36:01;52.45;;;19.42;;
52708;SDS011;38606;52.986;6.980;2023-11-21T03:38:28;49.38;;;17.63;;
52708;SDS011;38606;52.986;6.980;2023-11-21T03:40:54;46.17;;;18.15;;
52708;SDS011;38606;52.986;6.980;2023-11-21T03:43:20;50.58;;;18.88;;
52708;SDS011;38606;52.986;6.980;2023-11-21T03:45:46;55.17;;;19.08;;
52708;SDS011;38606;52.986;6.980;2023-11-21T03:48:12;47.10;;;18.95;;
52708;SDS011;38606;52.986;6.980;2023-11-21T03:50:38;51.83;;;19.33;;
52708;SDS011;38606;52.986;6.980;2023-11-21T03:53:04;62.53;;;21.13;;
52708;SDS011;38606;52.986;6.980;2023-11-21T03:55:30;60.58;;;20.75;;
52708;SDS011;38606;52.986;6.980;2023-11-21T03:57:57;61.15;;;19.23;;
52708;SDS011;38606;52.986;6.980;2023-11-21T04:00:23;59.35;;;19.75;;
52708;SDS011;38606;52.986;6.980;2023-11-21T04:02:50;59.17;;;20.83;;
52708;SDS011;38606;52.986;6.980;2023-11-21T04:05:16;55.05;;;20.27;;
52708;SDS011;38606;52.986;6.980;2023-11-21T04:07:42;58.95;;;20.40;;
52708;SDS011;38606;52.986;6.980;2023-11-21T04:10:08;63.35;;;20.98;;
52708;SDS011;38606;52.986;6.980;2023-11-21T04:12:37;66.45;;;20.42;;
52708;SDS011;38606;52.986;6.980;2023-11-21T04:15:03;66.95;;;21.88;;
52708;SDS011;38606;52.986;6.980;2023-11-21T04:17:29;62.67;;;22.52;;
52708;SDS011;38606;52.986;6.980;2023-11-21T04:19:55;63.72;;;21.40;;
52708;SDS011;38606;52.986;6.980;2023-11-21T04:22:21;60.92;;;22.38;;
52708;SDS011;38606;52.986;6.980;2023-11-21T04:24:47;76.43;;;23.60;;
52708;SDS011;38606;52.986;6.980;2023-11-21T04:27:14;57.47;;;22.02;;
52708;SDS011;38606;52.986;6.980;2023-11-21T04:29:40;65.30;;;23.60;;
52708;SDS011;38606;52.986;6.980;2023-11-21T04:32:06;55.85;;;22.05;;
52708;SDS011;38606;52.986;6.980;2023-11-21T04:34:33;55.65;;;22.50;;
52708;SDS011;38606;52.986;6.980;2023-11-21T04:36:59;52.60;;;21.25;;
52708;SDS011;38606;52.986;6.980;2023-11-21T04:39:25;60.38;;;22.63;;
52708;SDS011;38606;52.986;6.980;2023-11-21T04:41:51;61.33;;;22.58;;
52708;SDS011;38606;52.986;6.980;2023-11-21T04:44:17;55.92;;;22.15;;
52708;SDS011;38606;52.986;6.980;2023-11-21T04:46:43;66.97;;;23.50;;
52708;SDS011;38606;52.986;6.980;2023-11-21T04:49:08;51.10;;;21.42;;
52708;SDS011;38606;52.986;6.980;2023-11-21T04:51:36;65.32;;;22.77;;
52708;SDS011;38606;52.986;6.980;2023-11-21T04:54:01;69.07;;;23.77;;
52708;SDS011;38606;52.986;6.980;2023-11-21T04:56:27;62.72;;;22.83;;
52708;SDS011;38606;52.986;6.980;2023-11-21T04:58:54;59.83;;;23.08;;
52708;SDS011;38606;52.986;6.980;2023-11-21T05:01:20;61.83;;;22.98;;
52708;SDS011;38606;52.986;6.980;2023-11-21T05:03:46;50.92;;;21.35;;
52708;SDS011;38606;52.986;6.980;2023-11-21T05:06:12;61.30;;;23.65;;
52708;SDS011;38606;52.986;6.980;2023-11-21T05:08:39;57.05;;;22.90;;
52708;SDS011;38606;52.986;6.980;2023-11-21T05:11:05;55.90;;;23.13;;
52708;SDS011;38606;52.986;6.980;2023-11-21T05:13:33;64.05;;;23.65;;
52708;SDS011;38606;52.986;6.980;2023-11-21T05:15:59;65.53;;;23.38;;
52708;SDS011;38606;52.986;6.980;2023-11-21T05:18:25;57.80;;;23.60;;
52708;SDS011;38606;52.986;6.980;2023-11-21T05:20:55;63.38;;;23.58;;
52708;SDS011;38606;52.986;6.980;2023-11-21T05:23:21;56.70;;;23.73;;
52708;SDS011;38606;52.986;6.980;2023-11-21T05:25:47;70.18;;;24.45;;
52708;SDS011;38606;52.986;6.980;2023-11-21T05:28:13;52.00;;;23.30;;
52708;SDS011;38606;52.986;6.980;2023-11-21T05:30:38;77.32;;;26.92;;
52708;SDS011;38606;52.986;6.980;2023-11-21T05:33:05;60.42;;;25.65;;
52708;SDS011;38606;52.986;6.980;2023-11-21T05:35:31;68.80;;;24.75;;
52708;SDS011;38606;52.986;6.980;2023-11-21T05:37:56;75.80;;;26.63;;
52708;SDS011;38606;52.986;6.980;2023-11-21T05:40:22;65.85;;;24.58;;
52708;SDS011;38606;52.986;6.980;2023-11-21T05:42:48;68.88;;;26.85;;
52708;SDS011;38606;52.986;6.980;2023-11-21T05:45:14;73.95;;;24.75;;
52708;SDS011;38606;52.986;6.980;2023-11-21T05:47:41;67.65;;;25.45;;
52708;SDS011;38606;52.986;6.980;2023-11-21T05:50:11;74.55;;;26.40;;
52708;SDS011;38606;52.986;6.980;2023-11-21T05:52:42;80.95;;;26.50;;
52708;SDS011;38606;52.986;6.980;2023-11-21T05:55:09;75.47;;;24.60;;
52708;SDS011;38606;52.986;6.980;2023-11-21T05:57:36;77.57;;;25.88;;
52708;SDS011;38606;52.986;6.980;2023-11-21T06:00:07;98.05;;;26.38;;
52708;SDS011;38606;52.986;6.980;2023-11-21T06:02:43;94.38;;;26.27;;
52708;SDS011;38606;52.986;6.980;2023-11-21T06:05:10;72.97;;;22.63;;
52708;SDS011;38606;52.986;6.980;2023-11-21T06:07:36;60.30;;;20.38;;
52708;SDS011;38606;52.986;6.980;2023-11-21T06:10:03;65.82;;;22.15;;
52708;SDS011;38606;52.986;6.980;2023-11-21T06:12:38;57.03;;;20.10;;
52708;SDS011;38606;52.986;6.980;2023-11-21T06:15:05;53.92;;;19.98;;
52708;SDS011;38606;52.986;6.980;2023-11-21T06:17:34;49.50;;;18.95;;
52708;SDS011;38606;52.986;6.980;2023-11-21T06:20:05;50.65;;;18.48;;
52708;SDS011;38606;52.986;6.980;2023-11-21T06:25:01;51.97;;;19.17;;
52708;SDS011;38606;52.986;6.980;2023-11-21T06:27:28;46.08;;;17.98;;
52708;SDS011;38606;52.986;6.980;2023-11-21T06:29:54;51.45;;;18.63;;
52708;SDS011;38606;52.986;6.980;2023-11-21T06:32:20;53.90;;;18.55;;
52708;SDS011;38606;52.986;6.980;2023-11-21T06:34:47;44.67;;;17.65;;
52708;SDS011;38606;52.986;6.980;2023-11-21T06:37:14;43.72;;;17.88;;
52708;SDS011;38606;52.986;6.980;2023-11-21T06:39:40;42.80;;;17.15;;
52708;SDS011;38606;52.986;6.980;2023-11-21T06:42:06;43.42;;;17.17;;
52708;SDS011;38606;52.986;6.980;2023-11-21T06:44:32;49.92;;;17.23;;
52708;SDS011;38606;52.986;6.980;2023-11-21T06:46:58;46.33;;;16.67;;
52708;SDS011;38606;52.986;6.980;2023-11-21T06:49:24;46.00;;;17.90;;
52708;SDS011;38606;52.986;6.980;2023-11-21T06:51:50;44.03;;;17.85;;
52708;SDS011;38606;52.986;6.980;2023-11-21T06:54:18;37.28;;;16.35;;
52708;SDS011;38606;52.986;6.980;2023-11-21T06:56:43;46.75;;;17.38;;
52708;SDS011;38606;52.986;6.980;2023-11-21T06:59:09;43.20;;;16.45;;
52708;SDS011;38606;52.986;6.980;2023-11-21T07:01:35;43.47;;;15.70;;
52708;SDS011;38606;52.986;6.980;2023-11-21T07:04:04;39.85;;;15.25;;
52708;SDS011;38606;52.986;6.980;2023-11-21T07:06:31;37.67;;;14.70;;
52708;SDS011;38606;52.986;6.980;2023-11-21T07:08:57;34.42;;;13.50;;
52708;SDS011;38606;52.986;6.980;2023-11-21T07:11:23;31.35;;;13.15;;
52708;SDS011;38606;52.986;6.980;2023-11-21T07:13:50;36.33;;;14.05;;
52708;SDS011;38606;52.986;6.980;2023-11-21T07:16:17;38.28;;;14.68;;
52708;SDS011;38606;52.986;6.980;2023-11-21T07:18:44;45.65;;;17.13;;
52708;SDS011;38606;52.986;6.980;2023-11-21T07:21:10;54.15;;;16.98;;
52708;SDS011;38606;52.986;6.980;2023-11-21T07:23:37;53.83;;;17.75;;
52708;SDS011;38606;52.986;6.980;2023-11-21T07:26:03;66.07;;;19.45;;
52708;SDS011;38606;52.986;6.980;2023-11-21T07:28:34;72.05;;;21.13;;
52708;SDS011;38606;52.986;6.980;2023-11-21T07:31:00;70.22;;;21.55;;
52708;SDS011;38606;52.986;6.980;2023-11-21T07:33:26;78.50;;;22.67;;
52708;SDS011;38606;52.986;6.980;2023-11-21T07:35:52;69.10;;;22.70;;
52708;SDS011;38606;52.986;6.980;2023-11-21T07:38:18;74.57;;;22.75;;
52708;SDS011;38606;52.986;6.980;2023-11-21T07:40:43;79.55;;;24.45;;
52708;SDS011;38606;52.986;6.980;2023-11-21T07:43:09;79.72;;;23.80;;
52708;SDS011;38606;52.986;6.980;2023-11-21T07:45:35;73.35;;;23.83;;
52708;SDS011;38606;52.986;6.980;2023-11-21T07:48:01;78.43;;;25.05;;
52708;SDS011;38606;52.986;6.980;2023-11-21T07:50:28;82.22;;;25.40;;
52708;SDS011;38606;52.986;6.980;2023-11-21T07:52:55;74.15;;;25.73;;
52708;SDS011;38606;52.986;6.980;2023-11-21T07:55:20;69.93;;;24.70;;
52708;SDS011;38606;52.986;6.980;2023-11-21T07:57:46;73.53;;;25.45;;
52708;SDS011;38606;52.986;6.980;2023-11-21T08:00:12;66.28;;;23.90;;
52708;SDS011;38606;52.986;6.980;2023-11-21T08:02:40;72.43;;;25.17;;
52708;SDS011;38606;52.986;6.980;2023-11-21T08:05:11;75.45;;;24.85;;
52708;SDS011;38606;52.986;6.980;2023-11-21T08:07:37;62.53;;;24.38;;
52708;SDS011;38606;52.986;6.980;2023-11-21T08:10:03;58.58;;;25.67;;
52708;SDS011;38606;52.986;6.980;2023-11-21T08:12:30;56.20;;;25.10;;
52708;SDS011;38606;52.986;6.980;2023-11-21T08:14:56;53.20;;;24.70;;
52708;SDS011;38606;52.986;6.980;2023-11-21T08:17:21;52.17;;;25.58;;
52708;SDS011;38606;52.986;6.980;2023-11-21T08:19:48;50.50;;;25.17;;
52708;SDS011;38606;52.986;6.980;2023-11-21T08:22:17;50.17;;;24.60;;
52708;SDS011;38606;52.986;6.980;2023-11-21T08:24:43;48.00;;;23.90;;
52708;SDS011;38606;52.986;6.980;2023-11-21T08:27:09;51.42;;;23.98;;
52708;SDS011;38606;52.986;6.980;2023-11-21T08:29:35;47.85;;;24.02;;
52708;SDS011;38606;52.986;6.980;2023-11-21T08:32:03;45.00;;;24.00;;
52708;SDS011;38606;52.986;6.980;2023-11-21T08:34:30;42.88;;;23.60;;
52708;SDS011;38606;52.986;6.980;2023-11-21T08:36:56;42.70;;;23.00;;
52708;SDS011;38606;52.986;6.980;2023-11-21T08:39:22;45.28;;;22.83;;
52708;SDS011;38606;52.986;6.980;2023-11-21T08:41:49;41.13;;;21.95;;
52708;SDS011;38606;52.986;6.980;2023-11-21T08:44:16;44.38;;;22.55;;
52708;SDS011;38606;52.986;6.980;2023-11-21T08:46:43;42.83;;;23.20;;
52708;SDS011;38606;52.986;6.980;2023-11-21T08:49:11;40.22;;;21.73;;
52708;SDS011;38606;52.986;6.980;2023-11-21T08:51:37;39.42;;;22.50;;
52708;SDS011;38606;52.986;6.980;2023-11-21T08:54:04;40.22;;;21.88;;
52708;SDS011;38606;52.986;6.980;2023-11-21T08:56:33;47.75;;;22.27;;
52708;SDS011;38606;52.986;6.980;2023-11-21T08:58:59;43.47;;;21.95;;
52708;SDS011;38606;52.986;6.980;2023-11-21T09:01:31;41.88;;;22.75;;
52708;SDS011;38606;52.986;6.980;2023-11-21T09:03:57;42.80;;;22.02;;
52708;SDS011;38606;52.986;6.980;2023-11-21T09:06:23;43.30;;;23.10;;
52708;SDS011;38606;52.986;6.980;2023-11-21T09:08:49;45.88;;;23.35;;
52708;SDS011;38606;52.986;6.980;2023-11-21T09:11:15;41.60;;;21.67;;
52708;SDS011;38606;52.986;6.980;2023-11-21T09:13:42;39.67;;;20.70;;
52708;SDS011;38606;52.986;6.980;2023-11-21T09:16:07;35.72;;;20.55;;
52708;SDS011;38606;52.986;6.980;2023-11-21T09:18:33;37.17;;;20.80;;
52708;SDS011;38606;52.986;6.980;2023-11-21T09:20:59;38.95;;;21.17;;
52708;SDS011;38606;52.986;6.980;2023-11-21T09:23:25;35.47;;;19.67;;
52708;SDS011;38606;52.986;6.980;2023-11-21T09:25:50;42.97;;;21.10;;
52708;SDS011;38606;52.986;6.980;2023-11-21T09:28:17;47.55;;;22.30;;
52708;SDS011;38606;52.986;6.980;2023-11-21T09:30:43;48.08;;;24.27;;
52708;SDS011;38606;52.986;6.980;2023-11-21T09:33:09;43.60;;;22.95;;
52708;SDS011;38606;52.986;6.980;2023-11-21T09:35:38;38.97;;;20.73;;
52708;SDS011;38606;52.986;6.980;2023-11-21T09:38:04;33.30;;;18.90;;
52708;SDS011;38606;52.986;6.980;2023-11-21T09:40:35;34.42;;;19.35;;
52708;SDS011;38606;52.986;6.980;2023-11-21T09:43:06;33.95;;;18.45;;
52708;SDS011;38606;52.986;6.980;2023-11-21T09:45:41;31.83;;;17.35;;
52708;SDS011;38606;52.986;6.980;2023-11-21T09:48:15;29.95;;;17.15;;
52708;SDS011;38606;52.986;6.980;2023-11-21T09:50:42;24.23;;;16.13;;
52708;SDS011;38606;52.986;6.980;2023-11-21T09:53:19;24.48;;;15.43;;
52708;SDS011;38606;52.986;6.980;2023-11-21T09:55:47;20.27;;;14.02;;
52708;SDS011;38606;52.986;6.980;2023-11-21T09:58:15;21.00;;;13.80;;
52708;SDS011;38606;52.986;6.980;2023-11-21T10:00:42;19.42;;;12.80;;
52708;SDS011;38606;52.986;6.980;2023-11-21T10:03:10;16.67;;;11.88;;
52708;SDS011;38606;52.986;6.980;2023-11-21T10:05:37;15.68;;;11.00;;
52708;SDS011;38606;52.986;6.980;2023-11-21T10:08:04;16.10;;;10.23;;
52708;SDS011;38606;52.986;6.980;2023-11-21T10:10:33;15.48;;;9.75;;
52708;SDS011;38606;52.986;6.980;2023-11-21T10:13:01;14.18;;;8.88;;
52708;SDS011;38606;52.986;6.980;2023-11-21T10:15:31;14.52;;;8.55;;
52708;SDS011;38606;52.986;6.980;2023-11-21T10:18:00;12.55;;;8.15;;
52708;SDS011;38606;52.986;6.980;2023-11-21T10:20:28;10.57;;;7.97;;
52708;SDS011;38606;52.986;6.980;2023-11-21T10:22:54;13.57;;;8.27;;
52708;SDS011;38606;52.986;6.980;2023-11-21T10:25:22;12.23;;;8.25;;
52708;SDS011;38606;52.986;6.980;2023-11-21T10:27:48;14.82;;;9.40;;
52708;SDS011;38606;52.986;6.980;2023-11-21T10:30:16;12.93;;;9.35;;
52708;SDS011;38606;52.986;6.980;2023-11-21T10:32:43;13.52;;;8.70;;
52708;SDS011;38606;52.986;6.980;2023-11-21T10:35:09;12.25;;;9.00;;
52708;SDS011;38606;52.986;6.980;2023-11-21T10:37:41;11.25;;;8.38;;
52708;SDS011;38606;52.986;6.980;2023-11-21T10:40:10;12.38;;;8.40;;
52708;SDS011;38606;52.986;6.980;2023-11-21T10:42:40;16.42;;;8.80;;
52708;SDS011;38606;52.986;6.980;2023-11-21T10:45:10;13.30;;;8.15;;
52708;SDS011;38606;52.986;6.980;2023-11-21T10:47:42;12.90;;;8.93;;
52708;SDS011;38606;52.986;6.980;2023-11-21T10:50:08;11.93;;;8.32;;
52708;SDS011;38606;52.986;6.980;2023-11-21T10:52:36;11.88;;;8.38;;
52708;SDS011;38606;52.986;6.980;2023-11-21T10:55:25;11.80;;;8.68;;
52708;SDS011;38606;52.986;6.980;2023-11-21T10:57:52;12.23;;;7.65;;
52708;SDS011;38606;52.986;6.980;2023-11-21T11:00:19;11.55;;;7.95;;
52708;SDS011;38606;52.986;6.980;2023-11-21T11:02:52;11.23;;;8.30;;
52708;SDS011;38606;52.986;6.980;2023-11-21T11:05:21;12.18;;;8.27;;
52708;SDS011;38606;52.986;6.980;2023-11-21T11:07:58;12.10;;;8.77;;
52708;SDS011;38606;52.986;6.980;2023-11-21T11:10:28;12.10;;;8.75;;
52708;SDS011;38606;52.986;6.980;2023-11-21T11:12:55;10.57;;;8.13;;
52708;SDS011;38606;52.986;6.980;2023-11-21T11:15:22;12.30;;;8.50;;
52708;SDS011;38606;52.986;6.980;2023-11-21T11:17:50;10.10;;;7.15;;
52708;SDS011;38606;52.986;6.980;2023-11-21T11:20:16;11.68;;;8.27;;
52708;SDS011;38606;52.986;6.980;2023-11-21T11:28:11;10.43;;;7.65;;
52708;SDS011;38606;52.986;6.980;2023-11-21T11:31:01;10.98;;;7.53;;
52708;SDS011;38606;52.986;6.980;2023-11-21T11:34:10;12.23;;;7.80;;
52708;SDS011;38606;52.986;6.980;2023-11-21T11:36:56;11.60;;;7.38;;
52708;SDS011;38606;52.986;6.980;2023-11-21T11:39:30;11.35;;;7.63;;
52708;SDS011;38606;52.986;6.980;2023-11-21T11:42:02;10.32;;;7.10;;
52708;SDS011;38606;52.986;6.980;2023-11-21T11:47:29;8.95;;;6.72;;
52708;SDS011;38606;52.986;6.980;2023-11-21T11:54:59;12.13;;;7.18;;
52708;SDS011;38606;52.986;6.980;2023-11-21T11:57:26;10.35;;;7.00;;
52708;SDS011;38606;52.986;6.980;2023-11-21T12:00:07;11.32;;;7.38;;
52708;SDS011;38606;52.986;6.980;2023-11-21T12:02:51;10.32;;;7.28;;
52708;SDS011;38606;52.986;6.980;2023-11-21T12:05:18;9.68;;;7.05;;
52708;SDS011;38606;52.986;6.980;2023-11-21T12:10:13;9.55;;;6.65;;
52708;SDS011;38606;52.986;6.980;2023-11-21T12:12:46;11.50;;;7.13;;
52708;SDS011;38606;52.986;6.980;2023-11-21T12:15:14;10.55;;;7.28;;
52708;SDS011;38606;52.986;6.980;2023-11-21T12:17:41;10.63;;;7.53;;
52708;SDS011;38606;52.986;6.980;2023-11-21T12:20:08;10.48;;;7.57;;
52708;SDS011;38606;52.986;6.980;2023-11-21T12:22:52;10.93;;;7.68;;
52708;SDS011;38606;52.986;6.980;2023-11-21T12:25:20;10.15;;;7.65;;
52708;SDS011;38606;52.986;6.980;2023-11-21T12:27:58;9.32;;;6.85;;
52708;SDS011;38606;52.986;6.980;2023-11-21T12:30:28;9.95;;;6.93;;
52708;SDS011;38606;52.986;6.980;2023-11-21T12:33:01;12.30;;;7.28;;
52708;SDS011;38606;52.986;6.980;2023-11-21T12:35:28;10.70;;;7.32;;
52708;SDS011;38606;52.986;6.980;2023-11-21T12:37:56;9.10;;;6.28;;
52708;SDS011;38606;52.986;6.980;2023-11-21T12:40:24;11.77;;;7.53;;
52708;SDS011;38606;52.986;6.980;2023-11-21T12:42:51;8.85;;;6.50;;
52708;SDS011;38606;52.986;6.980;2023-11-21T12:45:28;10.25;;;7.53;;
52708;SDS011;38606;52.986;6.980;2023-11-21T12:47:59;9.73;;;6.85;;
52708;SDS011;38606;52.986;6.980;2023-11-21T12:50:29;10.57;;;6.95;;
52708;SDS011;38606;52.986;6.980;2023-11-21T12:53:09;8.77;;;6.35;;
52708;SDS011;38606;52.986;6.980;2023-11-21T12:55:38;9.35;;;6.43;;
52708;SDS011;38606;52.986;6.980;2023-11-21T12:58:05;10.32;;;6.40;;
52708;SDS011;38606;52.986;6.980;2023-11-21T13:00:36;10.25;;;6.60;;
52708;SDS011;38606;52.986;6.980;2023-11-21T13:03:04;10.20;;;7.13;;
52708;SDS011;38606;52.986;6.980;2023-11-21T13:05:35;8.88;;;6.20;;
52708;SDS011;38606;52.986;6.980;2023-11-21T13:08:07;9.13;;;6.53;;
52708;SDS011;38606;52.986;6.980;2023-11-21T13:10:37;10.82;;;6.00;;
52708;SDS011;38606;52.986;6.980;2023-11-21T13:13:10;10.48;;;5.90;;
52708;SDS011;38606;52.986;6.980;2023-11-21T13:18:16;8.13;;;6.40;;
52708;SDS011;38606;52.986;6.980;2023-11-21T13:20:42;9.55;;;5.07;;
52708;SDS011;38606;52.986;6.980;2023-11-21T13:23:09;10.30;;;6.35;;
52708;SDS011;38606;52.986;6.980;2023-11-21T13:25:37;11.25;;;5.93;;
52708;SDS011;38606;52.986;6.980;2023-11-21T13:28:06;10.57;;;4.95;;
52708;SDS011;38606;52.986;6.980;2023-11-21T13:30:32;8.80;;;5.07;;
52708;SDS011;38606;52.986;6.980;2023-11-21T13:33:02;10.40;;;6.07;;
52708;SDS011;38606;52.986;6.980;2023-11-21T13:35:31;6.75;;;5.22;;
52708;SDS011;38606;52.986;6.980;2023-11-21T13:38:12;10.55;;;5.70;;
52708;SDS011;38606;52.986;6.980;2023-11-21T13:40:41;9.23;;;5.70;;
52708;SDS011;38606;52.986;6.980;2023-11-21T13:43:11;8.45;;;5.97;;
52708;SDS011;38606;52.986;6.980;2023-11-21T13:45:42;11.13;;;6.20;;
52708;SDS011;38606;52.986;6.980;2023-11-21T13:48:10;8.65;;;6.15;;
52708;SDS011;38606;52.986;6.980;2023-11-21T13:50:45;8.82;;;5.85;;
52708;SDS011;38606;52.986;6.980;2023-11-21T13:53:24;10.40;;;6.45;;
52708;SDS011;38606;52.986;6.980;2023-11-21T13:55:50;9.32;;;6.43;;
52708;SDS011;38606;52.986;6.980;2023-11-21T13:58:22;12.35;;;6.40;;
52708;SDS011;38606;52.986;6.980;2023-11-21T14:00:57;9.93;;;6.55;;
52708;SDS011;38606;52.986;6.980;2023-11-21T14:03:23;11.43;;;6.95;;
52708;SDS011;38606;52.986;6.980;2023-11-21T14:05:57;10.00;;;6.28;;
52708;SDS011;38606;52.986;6.980;2023-11-21T14:08:25;10.90;;;6.18;;
52708;SDS011;38606;52.986;6.980;2023-11-21T14:10:57;9.45;;;6.63;;
52708;SDS011;38606;52.986;6.980;2023-11-21T14:13:25;10.02;;;6.47;;
52708;SDS011;38606;52.986;6.980;2023-11-21T14:15:52;9.15;;;6.25;;
52708;SDS011;38606;52.986;6.980;2023-11-21T14:18:26;15.63;;;5.78;;
52708;SDS011;38606;52.986;6.980;2023-11-21T14:20:59;10.15;;;4.95;;
52708;SDS011;38606;52.986;6.980;2023-11-21T14:23:25;6.65;;;4.78;;
52708;SDS011;38606;52.986;6.980;2023-11-21T14:25:50;8.60;;;4.57;;
52708;SDS011;38606;52.986;6.980;2023-11-21T14:28:17;7.22;;;4.90;;
52708;SDS011;38606;52.986;6.980;2023-11-21T14:30:44;6.63;;;4.38;;
52708;SDS011;38606;52.986;6.980;2023-11-21T14:33:13;7.55;;;4.22;;
52708;SDS011;38606;52.986;6.980;2023-11-21T14:35:41;7.38;;;4.10;;
52708;SDS011;38606;52.986;6.980;2023-11-21T14:38:08;7.47;;;5.07;;
52708;SDS011;38606;52.986;6.980;2023-11-21T14:40:35;5.60;;;4.32;;
52708;SDS011;38606;52.986;6.980;2023-11-21T14:43:02;7.45;;;4.80;;
52708;SDS011;38606;52.986;6.980;2023-11-21T14:45:32;8.23;;;4.90;;
52708;SDS011;38606;52.986;6.980;2023-11-21T14:47:58;7.82;;;5.05;;
52708;SDS011;38606;52.986;6.980;2023-11-21T14:50:30;8.77;;;4.32;;
52708;SDS011;38606;52.986;6.980;2023-11-21T14:53:06;8.15;;;5.03;;
52708;SDS011;38606;52.986;6.980;2023-11-21T14:55:33;7.93;;;5.15;;